createdAt,value
2023-03-02T00:01:10.618Z,52.08
2023-03-02T00:03:41.703Z,53.55
2023-03-02T00:06:10.062Z,49.80
2023-03-02T00:08:39.326Z,49.75
2023-03-02T00:11:06.984Z,53.00
2023-03-02T00:13:36.345Z,53.75
2023-03-02T00:16:04.438Z,51.42
2023-03-02T00:18:32.025Z,51.13
2023-03-02T00:20:59.241Z,51.88
2023-03-02T00:23:26.687Z,56.00
2023-03-02T00:25:53.954Z,51.10
2023-03-02T00:28:21.558Z,46.70
2023-03-02T00:30:48.644Z,46.50
2023-03-02T00:33:15.850Z,53.72
2023-03-02T00:35:43.468Z,53.05
2023-03-02T00:38:10.733Z,47.63
2023-03-02T00:40:37.920Z,51.13
2023-03-02T00:43:05.203Z,48.97
2023-03-02T00:45:32.405Z,50.53
2023-03-02T00:47:59.653Z,48.13
2023-03-02T00:50:26.809Z,48.85
2023-03-02T00:52:53.965Z,43.97
2023-03-02T00:55:21.906Z,45.83
2023-03-02T00:57:55.338Z,45.78
2023-03-02T01:00:28.945Z,48.78
2023-03-02T01:03:00.301Z,50.30
2023-03-02T01:05:28.254Z,42.92
2023-03-02T01:07:55.466Z,48.00
2023-03-02T01:10:22.879Z,44.97
2023-03-02T01:12:50.255Z,42.25
2023-03-02T01:15:17.408Z,46.25
2023-03-02T01:17:44.608Z,43.28
2023-03-02T01:20:13.049Z,37.90
2023-03-02T01:22:40.224Z,43.58
2023-03-02T01:25:07.815Z,42.38
2023-03-02T01:27:34.988Z,44.00
2023-03-02T01:30:02.349Z,44.17
2023-03-02T01:32:32.060Z,41.40
2023-03-02T01:34:59.238Z,41.45
2023-03-02T01:37:26.632Z,41.47
2023-03-02T01:39:53.987Z,40.13
2023-03-02T01:42:21.102Z,42.50
2023-03-02T01:44:51.279Z,45.92
2023-03-02T01:47:28.648Z,38.40
2023-03-02T01:50:16.026Z,41.67
2023-03-02T01:52:44.053Z,39.65
2023-03-02T01:55:13.823Z,40.92
2023-03-02T01:57:47.085Z,45.92
2023-03-02T02:00:19.598Z,40.60
2023-03-02T02:02:48.111Z,38.30
2023-03-02T02:05:21.573Z,40.78
2023-03-02T02:07:49.819Z,40.47
2023-03-02T02:10:18.417Z,44.10
2023-03-02T02:12:45.882Z,41.47
2023-03-02T02:15:13.326Z,44.20
2023-03-02T02:17:41.332Z,43.15
2023-03-02T02:20:28.437Z,41.97
2023-03-02T02:23:16.187Z,42.22
2023-03-02T02:25:55.542Z,37.47
2023-03-02T02:28:29.405Z,40.13
2023-03-02T02:31:10.024Z,39.33
2023-03-02T02:33:39.432Z,45.83
2023-03-02T02:36:10.333Z,41.67
2023-03-02T02:38:41.550Z,44.05
2023-03-02T02:41:14.945Z,40.88
2023-03-02T02:43:42.569Z,40.85
2023-03-02T02:46:11.971Z,42.60
2023-03-02T02:48:39.668Z,39.75
2023-03-02T02:51:09.243Z,39.50
2023-03-02T02:53:48.673Z,38.70
2023-03-02T02:56:17.713Z,40.15
2023-03-02T02:58:52.230Z,39.35
2023-03-02T03:01:26.648Z,41.20
2023-03-02T03:04:00.937Z,40.42
2023-03-02T03:06:38.537Z,44.53
2023-03-02T03:09:08.244Z,41.90
2023-03-02T03:11:43.526Z,37.83
2023-03-02T03:14:14.481Z,38.88
2023-03-02T03:16:47.332Z,42.60
2023-03-02T03:19:20.127Z,44.00
2023-03-02T03:21:51.370Z,40.33
2023-03-02T03:24:20.646Z,40.17
2023-03-02T03:26:49.675Z,39.05
2023-03-02T03:29:19.342Z,39.78
2023-03-02T03:31:48.054Z,35.72
2023-03-02T03:34:15.310Z,39.22
2023-03-02T03:36:43.721Z,40.72
2023-03-02T03:39:12.197Z,43.58
2023-03-02T03:41:40.659Z,40.40
2023-03-02T03:44:09.315Z,42.40
2023-03-02T03:46:38.472Z,40.00
2023-03-02T03:49:06.254Z,43.35
2023-03-02T03:51:35.480Z,40.22
2023-03-02T03:54:08.420Z,42.00
2023-03-02T03:56:43.174Z,40.88
2023-03-02T03:59:14.598Z,42.40
2023-03-02T04:01:51.294Z,41.30
2023-03-02T04:04:35.919Z,40.15
2023-03-02T04:07:08.382Z,39.85
2023-03-02T04:09:38.141Z,39.30
2023-03-02T04:12:08.377Z,42.42
2023-03-02T04:14:36.407Z,38.17
2023-03-02T04:17:05.535Z,43.72
2023-03-02T04:19:35.621Z,39.58
2023-03-02T04:22:04.630Z,42.30
2023-03-02T04:24:33.868Z,40.58
2023-03-02T04:27:03.679Z,37.58
2023-03-02T04:29:32.511Z,36.85
2023-03-02T04:32:01.791Z,43.85
2023-03-02T04:34:31.364Z,40.25
2023-03-02T04:36:58.886Z,40.05
2023-03-02T04:39:26.777Z,40.03
2023-03-02T04:41:54.301Z,35.85
2023-03-02T04:44:21.992Z,37.53
2023-03-02T04:46:49.654Z,38.10
2023-03-02T04:49:18.239Z,39.35
2023-03-02T04:51:47.720Z,38.03
2023-03-02T04:54:16.461Z,39.42
2023-03-02T04:56:43.652Z,38.88
2023-03-02T04:59:10.713Z,40.55
2023-03-02T05:01:38.052Z,35.63
2023-03-02T05:04:06.198Z,36.30
2023-03-02T05:06:34.559Z,38.00
2023-03-02T05:09:02.169Z,37.30
2023-03-02T05:11:30.107Z,40.20
2023-03-02T05:14:02.199Z,36.80
2023-03-02T05:16:33.112Z,41.47
2023-03-02T05:19:03.396Z,38.75
2023-03-02T05:21:30.627Z,39.92
2023-03-02T05:23:58.841Z,40.33
2023-03-02T05:26:26.106Z,40.65
2023-03-02T05:28:54.185Z,36.00
2023-03-02T05:31:25.032Z,38.70
2023-03-02T05:33:52.511Z,41.78
2023-03-02T05:36:22.873Z,34.22
2023-03-02T05:38:52.487Z,34.85
2023-03-02T05:41:20.315Z,33.85
2023-03-02T05:43:48.047Z,33.70
2023-03-02T05:46:16.991Z,35.83
2023-03-02T05:48:44.382Z,34.88
2023-03-02T05:51:11.546Z,35.38
2023-03-02T05:53:38.861Z,38.78
2023-03-02T05:56:07.381Z,35.80
2023-03-02T05:58:34.483Z,40.15
2023-03-02T06:01:01.956Z,39.65
2023-03-02T06:03:29.249Z,36.20
2023-03-02T06:05:56.545Z,36.53
2023-03-02T06:08:23.720Z,34.47
2023-03-02T06:10:51.036Z,35.00
2023-03-02T06:13:18.240Z,30.45
2023-03-02T06:15:46.089Z,31.88
2023-03-02T06:18:13.913Z,31.25
2023-03-02T06:20:42.253Z,34.33
2023-03-02T06:23:09.533Z,34.35
2023-03-02T06:25:41.419Z,33.17
2023-03-02T06:28:09.974Z,32.78
2023-03-02T06:30:37.270Z,33.03
2023-03-02T06:33:04.455Z,34.42
2023-03-02T06:35:31.915Z,35.10
2023-03-02T06:37:59.214Z,33.25
2023-03-02T06:40:26.329Z,39.25
2023-03-02T06:42:53.488Z,43.47
2023-03-02T06:45:21.385Z,35.08
2023-03-02T06:47:49.126Z,35.45
2023-03-02T06:50:16.361Z,31.60
2023-03-02T06:52:43.489Z,37.95
2023-03-02T06:55:11.132Z,35.42
2023-03-02T06:57:38.721Z,35.00
2023-03-02T07:00:10.447Z,36.50
2023-03-02T07:02:38.443Z,35.53
2023-03-02T07:05:07.534Z,34.33
2023-03-02T07:07:35.476Z,35.00
2023-03-02T07:10:02.972Z,32.53
2023-03-02T07:12:30.347Z,31.63
2023-03-02T07:14:57.560Z,37.88
2023-03-02T07:17:25.260Z,34.95
2023-03-02T07:19:52.774Z,33.58
2023-03-02T07:22:20.690Z,37.58
2023-03-02T07:24:47.892Z,37.35
2023-03-02T07:27:15.079Z,31.13
2023-03-02T07:29:42.877Z,33.33
2023-03-02T07:32:12.677Z,28.98
2023-03-02T07:34:40.204Z,31.40
2023-03-02T07:37:07.534Z,32.28
2023-03-02T07:39:35.051Z,28.63
2023-03-02T07:42:04.822Z,31.90
2023-03-02T07:44:32.023Z,29.23
2023-03-02T07:46:59.208Z,26.17
2023-03-02T07:49:26.468Z,27.52
2023-03-02T07:51:53.736Z,28.15
2023-03-02T07:54:20.830Z,26.80
2023-03-02T07:56:48.116Z,35.40
2023-03-02T07:59:15.619Z,27.88
2023-03-02T08:01:43.514Z,28.83
2023-03-02T08:04:10.678Z,28.50
2023-03-02T08:06:37.902Z,28.80
2023-03-02T08:09:05.320Z,24.27
2023-03-02T08:11:32.699Z,31.20
2023-03-02T08:14:01.889Z,28.80
2023-03-02T08:16:29.565Z,25.27
2023-03-02T08:18:59.643Z,27.27
2023-03-02T08:21:28.324Z,25.38
2023-03-02T08:23:55.508Z,28.23
2023-03-02T08:26:22.946Z,29.75
2023-03-02T08:28:50.262Z,29.02
2023-03-02T08:31:17.588Z,26.80
2023-03-02T08:33:46.143Z,28.20
2023-03-02T08:36:17.530Z,30.00
2023-03-02T08:38:45.873Z,27.02
2023-03-02T08:41:16.345Z,27.27
2023-03-02T08:43:44.434Z,31.17
2023-03-02T08:46:13.653Z,27.73
2023-03-02T08:48:41.461Z,29.42
2023-03-02T08:51:13.045Z,30.05
2023-03-02T08:53:43.484Z,26.33
2023-03-02T08:56:25.274Z,26.15
2023-03-02T08:58:54.287Z,27.02
2023-03-02T09:01:24.818Z,28.27
2023-03-02T09:03:53.047Z,29.35
2023-03-02T09:06:21.184Z,28.90
2023-03-02T09:08:49.012Z,28.90
2023-03-02T09:11:16.658Z,30.15
2023-03-02T09:13:44.186Z,28.20
2023-03-02T09:16:12.901Z,29.20
2023-03-02T09:18:40.709Z,26.02
2023-03-02T09:21:08.490Z,25.83
2023-03-02T09:23:36.715Z,28.33
2023-03-02T09:26:05.128Z,25.27
2023-03-02T09:28:33.336Z,30.65
2023-03-02T09:31:04.944Z,26.45
2023-03-02T09:33:33.423Z,27.67
2023-03-02T09:36:01.595Z,27.85
2023-03-02T09:38:29.241Z,29.00
2023-03-02T09:40:57.489Z,25.92
2023-03-02T09:44:04.928Z,22.95
2023-03-02T09:46:52.275Z,25.58
2023-03-02T09:49:26.104Z,27.17
2023-03-02T09:52:21.328Z,27.27
2023-03-02T09:54:48.582Z,28.00
2023-03-02T09:57:38.841Z,25.73
2023-03-02T10:00:19.506Z,34.03
2023-03-02T10:02:49.913Z,27.90
2023-03-02T10:05:23.153Z,31.13
2023-03-02T10:07:50.488Z,27.88
2023-03-02T10:10:18.601Z,30.08
2023-03-02T10:13:25.401Z,26.98
2023-03-02T10:16:06.962Z,33.88
2023-03-02T10:19:03.137Z,27.70
2023-03-02T10:21:43.372Z,27.40
2023-03-02T10:24:53.339Z,28.60
2023-03-02T10:27:43.257Z,28.50
2023-03-02T10:30:18.367Z,25.63
2023-03-02T10:32:49.756Z,24.73
2023-03-02T10:35:23.805Z,28.50
2023-03-02T10:37:58.551Z,24.00
2023-03-02T10:40:49.069Z,24.85
2023-03-02T10:43:19.196Z,24.83
2023-03-02T10:45:57.778Z,25.08
2023-03-02T10:48:25.419Z,25.70
2023-03-02T10:50:56.006Z,24.52
2023-03-02T10:53:23.554Z,25.85
2023-03-02T10:55:53.124Z,26.02
2023-03-02T10:58:35.912Z,25.25
2023-03-02T11:01:07.321Z,26.08
2023-03-02T11:03:35.027Z,27.42
2023-03-02T11:06:20.444Z,27.83
2023-03-02T11:08:59.306Z,28.20
2023-03-02T11:11:27.028Z,25.25
2023-03-02T11:13:56.453Z,28.33
2023-03-02T11:16:28.670Z,25.48
2023-03-02T11:19:00.757Z,29.88
2023-03-02T11:21:31.009Z,24.67
2023-03-02T11:24:02.528Z,25.60
2023-03-02T11:26:37.654Z,26.77
2023-03-02T11:29:20.940Z,26.73
2023-03-02T11:31:59.102Z,25.83
2023-03-02T11:34:39.171Z,30.30
2023-03-02T11:37:44.501Z,23.63
2023-03-02T11:40:34.799Z,23.98
2023-03-02T11:43:05.068Z,27.08
2023-03-02T11:45:37.593Z,26.75
2023-03-02T11:48:08.455Z,25.05
2023-03-02T11:50:45.810Z,24.13
2023-03-02T11:53:17.391Z,24.67
2023-03-02T11:55:49.584Z,24.23
2023-03-02T11:58:21.246Z,22.10
2023-03-02T12:00:50.042Z,22.95
2023-03-02T12:03:17.071Z,21.13
2023-03-02T12:05:47.742Z,23.33
2023-03-02T12:08:19.155Z,21.73
2023-03-02T12:11:22.212Z,20.70
2023-03-02T12:13:49.530Z,19.90
2023-03-02T12:16:41.113Z,21.23
2023-03-02T12:19:24.218Z,23.13
2023-03-02T12:22:10.714Z,21.48
2023-03-02T12:24:40.413Z,21.10
2023-03-02T12:27:16.689Z,20.17
2023-03-02T12:29:50.413Z,23.15
2023-03-02T12:32:19.067Z,18.27
2023-03-02T12:34:56.832Z,21.10
2023-03-02T12:37:42.638Z,20.00
2023-03-02T12:40:37.642Z,19.83
2023-03-02T12:43:27.825Z,20.75
2023-03-02T12:46:18.300Z,22.85
2023-03-02T12:48:47.334Z,18.10
2023-03-02T12:51:24.820Z,20.88
2023-03-02T12:54:16.336Z,20.58
2023-03-02T12:56:43.800Z,21.33
2023-03-02T12:59:22.704Z,20.45
2023-03-02T13:01:50.033Z,20.67
2023-03-02T13:04:27.187Z,20.08
2023-03-02T13:06:55.558Z,24.50
2023-03-02T13:09:23.900Z,21.02
2023-03-02T13:11:54.780Z,19.63
2023-03-02T13:14:27.458Z,22.98
2023-03-02T13:16:59.655Z,19.92
2023-03-02T13:19:27.919Z,20.15
2023-03-02T13:21:55.232Z,19.88
2023-03-02T13:24:28.663Z,20.33
2023-03-02T13:26:58.478Z,22.98
2023-03-02T13:29:28.247Z,18.38
2023-03-02T13:31:55.524Z,21.05
2023-03-02T13:34:24.195Z,17.48
2023-03-02T13:36:51.967Z,20.10
2023-03-02T13:39:23.151Z,18.05
2023-03-02T13:42:08.977Z,17.23
2023-03-02T13:44:36.518Z,18.60
2023-03-02T13:47:04.153Z,15.60
2023-03-02T13:49:34.529Z,16.65
2023-03-02T13:52:08.140Z,17.13
2023-03-02T13:54:37.815Z,16.83
2023-03-02T13:57:06.410Z,15.65
2023-03-02T13:59:36.760Z,19.42
2023-03-02T14:02:12.144Z,19.30
2023-03-02T14:04:39.438Z,17.92
2023-03-02T14:07:07.193Z,15.05
2023-03-02T14:09:34.285Z,17.80
2023-03-02T14:12:01.647Z,16.65
2023-03-02T14:14:32.534Z,17.08
2023-03-02T14:16:59.869Z,16.63
2023-03-02T14:19:27.024Z,19.08
2023-03-02T14:21:54.106Z,15.32
2023-03-02T14:24:21.754Z,16.92
2023-03-02T14:26:49.939Z,16.73
2023-03-02T14:29:34.761Z,19.98
2023-03-02T14:34:31.877Z,19.13
2023-03-02T14:37:02.968Z,17.95
2023-03-02T14:39:35.844Z,19.08
2023-03-02T14:42:03.518Z,18.80
2023-03-02T14:44:30.719Z,17.52
2023-03-02T14:46:58.345Z,19.67
2023-03-02T14:49:25.853Z,16.98
2023-03-02T14:52:05.341Z,18.00
2023-03-02T14:54:41.029Z,17.63
2023-03-02T14:57:18.350Z,16.67
2023-03-02T14:59:46.013Z,16.83
2023-03-02T15:02:24.938Z,17.42
2023-03-02T15:04:56.312Z,17.77
2023-03-02T15:07:25.905Z,17.55
2023-03-02T15:09:53.190Z,19.77
2023-03-02T15:12:20.276Z,17.77
2023-03-02T15:14:47.538Z,16.42
2023-03-02T15:17:15.155Z,18.05
2023-03-02T15:19:42.484Z,17.52
2023-03-02T15:22:10.207Z,20.20
2023-03-02T15:24:37.625Z,20.50
2023-03-02T15:27:05.103Z,18.17
2023-03-02T15:29:32.283Z,19.80
2023-03-02T15:31:59.583Z,20.30
2023-03-02T15:34:26.930Z,21.95
2023-03-02T15:36:53.941Z,21.48
2023-03-02T15:39:21.561Z,25.85
2023-03-02T15:41:49.114Z,23.27
2023-03-02T15:44:22.451Z,21.88
2023-03-02T15:46:51.930Z,20.83
2023-03-02T15:49:23.103Z,20.40
2023-03-02T15:51:52.167Z,25.92
2023-03-02T15:54:19.691Z,23.05
2023-03-02T15:56:52.212Z,20.95
2023-03-02T15:59:22.038Z,22.30
2023-03-02T16:01:49.299Z,20.17
2023-03-02T16:04:16.921Z,20.83
2023-03-02T16:06:45.229Z,22.45
2023-03-02T16:09:12.831Z,22.30
2023-03-02T16:11:40.251Z,23.40
2023-03-02T16:14:07.531Z,19.77
2023-03-02T16:16:34.953Z,23.30
2023-03-02T16:19:02.472Z,21.90
2023-03-02T16:21:29.601Z,22.08
2023-03-02T16:24:04.752Z,23.75
2023-03-02T16:26:34.141Z,20.00
2023-03-02T16:29:01.904Z,18.17
2023-03-02T16:31:32.503Z,23.20
2023-03-02T16:34:04.058Z,18.88
2023-03-02T16:36:31.253Z,19.85
2023-03-02T16:39:02.644Z,17.60
2023-03-02T16:41:29.897Z,18.33
2023-03-02T16:43:58.831Z,20.30
2023-03-02T16:46:28.954Z,20.00
2023-03-02T16:48:58.039Z,20.73
2023-03-02T16:51:25.479Z,20.40
2023-03-02T16:53:53.188Z,20.92
2023-03-02T16:56:21.119Z,20.52
2023-03-02T16:58:48.659Z,22.27
2023-03-02T17:01:20.502Z,21.70
2023-03-02T17:03:50.267Z,21.30
2023-03-02T17:06:21.093Z,19.75
2023-03-02T17:08:49.094Z,18.27
2023-03-02T17:11:16.471Z,18.70
2023-03-02T17:13:44.223Z,21.02
2023-03-02T17:16:11.516Z,19.95
2023-03-02T17:18:39.176Z,22.63
2023-03-02T17:21:06.753Z,21.15
2023-03-02T17:23:33.970Z,23.13
2023-03-02T17:26:01.506Z,24.63
2023-03-02T17:28:28.723Z,27.00
2023-03-02T17:30:55.868Z,27.00
2023-03-02T17:33:23.702Z,24.35
2023-03-02T17:35:51.650Z,29.60
2023-03-02T17:38:19.207Z,29.20
2023-03-02T17:40:47.063Z,26.20
2023-03-02T17:43:14.234Z,30.77
2023-03-02T17:45:41.665Z,28.52
2023-03-02T17:48:08.865Z,30.55
2023-03-02T17:50:37.233Z,30.40
2023-03-02T17:53:04.815Z,30.95
2023-03-02T17:55:32.279Z,30.58
2023-03-02T17:58:01.659Z,30.40
2023-03-02T18:00:29.354Z,27.33
2023-03-02T18:02:58.135Z,25.15
2023-03-02T18:05:26.619Z,26.75
2023-03-02T18:07:54.694Z,27.13
2023-03-02T18:10:22.272Z,27.33
2023-03-02T18:12:52.297Z,24.30
2023-03-02T18:15:20.843Z,26.25
2023-03-02T18:17:47.981Z,26.58
2023-03-02T18:20:15.130Z,21.63
2023-03-02T18:22:42.871Z,26.88
2023-03-02T18:25:11.010Z,26.83
2023-03-02T18:27:38.494Z,27.70
2023-03-02T18:30:06.173Z,24.25
2023-03-02T18:32:33.984Z,26.98
2023-03-02T18:35:01.136Z,27.98
2023-03-02T18:37:28.632Z,27.80
2023-03-02T18:39:56.190Z,23.38
2023-03-02T18:42:23.877Z,26.27
2023-03-02T18:44:52.011Z,26.60
2023-03-02T18:47:19.288Z,25.00
2023-03-02T18:49:47.764Z,29.23
2023-03-02T18:52:17.004Z,31.17
2023-03-02T18:54:46.823Z,29.13
2023-03-02T18:57:14.652Z,28.90
2023-03-02T18:59:42.709Z,26.90
2023-03-02T19:02:14.037Z,27.25
2023-03-02T19:04:43.009Z,26.35
2023-03-02T19:07:10.340Z,28.63
2023-03-02T19:09:37.721Z,26.13
2023-03-02T19:12:05.341Z,30.40
2023-03-02T19:14:32.919Z,28.48
2023-03-02T19:17:00.029Z,29.60
2023-03-02T19:19:28.385Z,31.63
2023-03-02T19:21:55.570Z,28.40
2023-03-02T19:24:22.853Z,29.58
2023-03-02T19:26:51.002Z,27.35
2023-03-02T19:29:18.970Z,28.42
2023-03-02T19:31:46.130Z,30.20
2023-03-02T19:34:13.741Z,27.30
2023-03-02T19:36:41.039Z,31.50
2023-03-02T19:39:08.393Z,32.53
2023-03-02T19:41:35.823Z,31.38
2023-03-02T19:44:03.415Z,30.48
2023-03-02T19:46:31.014Z,34.17
2023-03-02T19:48:58.511Z,29.50
2023-03-02T19:51:25.955Z,30.98
2023-03-02T19:53:53.376Z,28.23
2023-03-02T19:56:21.689Z,31.63
2023-03-02T19:58:53.457Z,32.13
2023-03-02T20:01:22.242Z,28.63
2023-03-02T20:03:51.891Z,32.38
2023-03-02T20:06:21.690Z,30.67
2023-03-02T20:08:50.268Z,31.40
2023-03-02T20:11:18.897Z,31.10
2023-03-02T20:13:46.137Z,28.58
2023-03-02T20:16:14.584Z,30.10
2023-03-02T20:18:42.367Z,30.38
2023-03-02T20:21:09.936Z,30.65
2023-03-02T20:23:37.820Z,34.55
2023-03-02T20:26:06.391Z,36.17
2023-03-02T20:28:34.159Z,37.13
2023-03-02T20:31:09.277Z,34.92
2023-03-02T20:33:41.945Z,36.72
2023-03-02T20:36:09.870Z,31.40
2023-03-02T20:38:41.901Z,34.80
2023-03-02T20:41:11.817Z,31.90
2023-03-02T20:43:43.322Z,32.70
2023-03-02T20:46:17.748Z,34.72
2023-03-02T20:48:45.302Z,33.40
2023-03-02T20:51:12.878Z,44.67
2023-03-02T20:53:40.873Z,36.72
2023-03-02T20:56:08.133Z,35.25
2023-03-02T20:58:38.178Z,36.95
2023-03-02T21:01:05.946Z,37.05
2023-03-02T21:03:33.797Z,33.97
2023-03-02T21:06:01.512Z,38.95
2023-03-02T21:08:28.869Z,36.28
2023-03-02T21:10:56.969Z,36.05
2023-03-02T21:13:24.414Z,37.20
2023-03-02T21:15:52.746Z,39.05
2023-03-02T21:18:20.832Z,38.28
2023-03-02T21:20:48.504Z,35.75
2023-03-02T21:23:15.922Z,36.67
2023-03-02T21:25:45.025Z,33.15
2023-03-02T21:28:12.241Z,40.20
2023-03-02T21:30:41.417Z,36.38
2023-03-02T21:33:09.696Z,35.92
2023-03-02T21:35:38.614Z,34.17
2023-03-02T21:38:06.650Z,35.83
2023-03-02T21:40:41.193Z,35.70
2023-03-02T21:43:08.879Z,32.50
2023-03-02T21:45:37.514Z,30.02
2023-03-02T21:48:06.192Z,31.23
2023-03-02T21:50:36.886Z,31.70
2023-03-02T21:53:04.986Z,32.53
2023-03-02T21:55:34.879Z,30.20
2023-03-02T21:58:02.655Z,32.88
2023-03-02T22:00:33.985Z,30.38
2023-03-02T22:03:02.054Z,34.13
2023-03-02T22:05:30.530Z,32.53
2023-03-02T22:07:58.848Z,33.47
2023-03-02T22:10:47.594Z,30.23
2023-03-02T22:13:17.795Z,32.03
2023-03-02T22:15:46.481Z,35.67
2023-03-02T22:18:18.973Z,32.05
2023-03-02T22:20:49.470Z,33.05
2023-03-02T22:23:21.403Z,34.17
2023-03-02T22:25:52.119Z,35.22
2023-03-02T22:28:22.224Z,31.52
2023-03-02T22:30:52.010Z,32.08
2023-03-02T22:33:23.191Z,32.97
2023-03-02T22:35:53.159Z,34.33
2023-03-02T22:38:26.176Z,33.63
2023-03-02T22:40:55.371Z,32.80
2023-03-02T22:43:34.255Z,31.80
2023-03-02T22:46:10.818Z,32.35
2023-03-02T22:48:38.721Z,34.53
2023-03-02T22:51:15.544Z,32.72
2023-03-02T22:53:49.366Z,37.00
2023-03-02T22:56:38.412Z,32.42
2023-03-02T22:59:26.906Z,38.25
2023-03-02T23:02:00.431Z,36.92
2023-03-02T23:04:33.924Z,35.72
2023-03-02T23:07:03.744Z,35.03
2023-03-02T23:09:34.602Z,38.03
2023-03-02T23:12:13.993Z,34.78
2023-03-02T23:14:47.858Z,34.20
2023-03-02T23:17:18.209Z,36.30
2023-03-02T23:19:45.880Z,31.65
2023-03-02T23:22:13.702Z,33.25
2023-03-02T23:24:42.859Z,35.03
2023-03-02T23:27:11.693Z,36.35
2023-03-02T23:29:38.978Z,35.65
2023-03-02T23:32:06.482Z,36.42
2023-03-02T23:34:33.995Z,42.53
2023-03-02T23:37:01.525Z,36.47
2023-03-02T23:39:28.765Z,36.15
2023-03-02T23:41:56.296Z,37.65
2023-03-02T23:44:23.441Z,35.17
2023-03-02T23:46:52.121Z,37.85
2023-03-02T23:49:19.709Z,34.72
2023-03-02T23:51:47.445Z,35.38
2023-03-02T23:54:15.351Z,39.42
2023-03-02T23:56:42.706Z,34.53
2023-03-02T23:59:10.173Z,36.95
